Frontier A20N at Trenton on May 18th 2022, tail strike on landing

Last Update: May 19, 2022 / 23:00:29 GMT/Zulu time

Bookmark this article
Incident Facts

Date of incident
May 18, 2022

Classification
Accident

Flight number
F9-810

Aircraft Registration
N331FR

Aircraft Type
Airbus A320-200N

ICAO Type Designator
A20N

Airport ICAO Code
KTTN

A Frontier Airbus A320-200N, registration N331FR performing flight F9-810 from Fort Lauderdale,FL to Trenton,NJ (USA), landed on Trenton's runway 06 at 12:43L (16:43Z) but struck its tail onto the runway. The aircraft rolled out without further incident and taxied to the apron.

The aircraft was unable to continue service and is still on the ground in Trenton about 31 hours after landing.

The FAA reported: "AIRCRAFT EXPERIENCED A TAIL STRIKE ON LANDING, TRENTON, NJ.", the damage was unknown.



Metars:
KTTN 181853Z VRB04KT 10SM CLR 20/07 A2995 RMK AO2 SLP137 T02000072=
KTTN 181753Z VRB04KT 10SM CLR 19/07 A2997 RMK AO2 SLP141 T01940067 10194 20139 56018=
KTTN 181653Z 00000KT 10SM CLR 18/08 A2998 RMK AO2 SLP147 T01830083=
KTTN 181553Z 30003KT 10SM CLR 18/07 A3000 RMK AO2 SLP154 T01780067=
KTTN 181453Z 34005KT 10SM CLR 17/06 A3002 RMK AO2 SLP160 T01670056 51010=
KTTN 181353Z 32007KT 10SM CLR 16/06 A3001 RMK AO2 SLP156 T01610061=
KTTN 181253Z 34009G16KT 10SM CLR 16/07 A3001 RMK AO2 SLP155 T01560067=
KTTN 181153Z 33008G17KT 10SM CLR 14/06 A2999 RMK AO2 SLP150 T01390061 10139 20106 51010=
Aircraft Registration Data
Registration mark
N331FR
Country of Registration
United States
Date of Registration
Adldgjd qfgp Subscribe to unlock
TCDS Ident. No.
Manufacturer
AIRBUS
Aircraft Model / Type
A320-251N
Number of Seats
ICAO Aircraft Type
A20N
Year of Manufacture
Serial Number
Aircraft Address / Mode S Code (HEX)
Engine Count
Engine Manufacturer
Engine Model
Engine Type
Pounds of Thrust
Main Owner
Hjlccmqheci ldjAmim jcmpAnkijpnlpeqgiqmdj dqfjigknl iddbhdgnibbpnnnielnifihjdjmjglqnAdnihpjhm Subscribe to unlock
Incident Facts

Date of incident
May 18, 2022

Classification
Accident

Flight number
F9-810

Aircraft Registration
N331FR

Aircraft Type
Airbus A320-200N

ICAO Type Designator
A20N

Airport ICAO Code
KTTN

This article is published under license from Avherald.com. © of text by Avherald.com.
Article source

You can read 4 more free articles without a subscription.

Subscribe now and continue reading without any limits!

Are you a subscriber?
Login
Subscribe

Read unlimited articles and receive our daily update briefing. Gain better insights into what is happening in commercial aviation safety.

Free newsletter

Want to know more and stay ahead? Get our free weekly newsletter and join 5214 existing subscribers.

By subscribing, you accept our terms and conditions and confirm that you've read our privacy policy.

Send tip

Support AeroInside by sending a small tip amount.

Related articles

Newest articles

Subscribe today

Are you researching aviation incidents? Get access to AeroInside Insights, unlimited read access and receive the daily newsletter.

Pick your plan and subscribe

Partner

Blockaviation logo

A new way to document and demonstrate airworthiness compliance and aircraft value. Find out more.

Virtual Speech logo

ELITE Simulation Solutions is a leading global provider of Flight Simulation Training Devices, IFR training software as well as flight controls and related services. Find out more.

Get updates

Never miss an article from AeroInside. Subscribe to our free weekly newsletter and join 5214 existing subscribers.

By subscribing, you accept our terms and conditions and that you've read our privacy policy.

AeroInside Blog
Popular aircraft
Airbus A320
Boeing 737-800
Boeing 737-800 MAX
Popular airlines
American Airlines
United
Delta
Air Canada
Lufthansa
British Airways